createdAt,value
2018-04-17T00:02:00.000Z,15.0
2018-04-17T00:07:00.000Z,15.0
2018-04-17T00:12:00.000Z,15.0
2018-04-17T00:17:00.000Z,15.0
2018-04-17T00:22:00.000Z,15.0
2018-04-17T00:27:00.000Z,15.0
2018-04-17T00:32:00.000Z,15.0
2018-04-17T00:37:00.000Z,15.0
2018-04-17T00:42:00.000Z,15.0
2018-04-17T00:47:00.000Z,15.0
2018-04-17T00:52:00.000Z,15.0
2018-04-17T00:57:00.000Z,14.9
2018-04-17T01:02:00.000Z,14.9
2018-04-17T01:07:00.000Z,14.9
2018-04-17T01:12:00.000Z,14.9
2018-04-17T01:17:00.000Z,14.9
2018-04-17T01:22:00.000Z,14.9
2018-04-17T01:27:00.000Z,14.9
2018-04-17T01:32:00.000Z,14.8
2018-04-17T01:37:00.000Z,14.9
2018-04-17T01:42:00.000Z,14.9
2018-04-17T01:47:00.000Z,14.8
2018-04-17T01:52:00.000Z,14.8
2018-04-17T01:57:00.000Z,14.8
2018-04-17T02:02:00.000Z,14.8
2018-04-17T02:07:00.000Z,14.8
2018-04-17T02:12:00.000Z,14.8
2018-04-17T02:17:00.000Z,14.7
2018-04-17T02:22:00.000Z,14.6
2018-04-17T02:27:00.000Z,14.5
2018-04-17T02:32:00.000Z,14.5
2018-04-17T02:37:00.000Z,14.4
2018-04-17T02:42:00.000Z,14.3
2018-04-17T02:47:00.000Z,14.3
2018-04-17T02:52:00.000Z,14.3
2018-04-17T02:57:00.000Z,14.2
2018-04-17T03:02:00.000Z,14.2
2018-04-17T03:07:00.000Z,14.1
2018-04-17T03:12:00.000Z,14.1
2018-04-17T03:17:00.000Z,14.1
2018-04-17T03:22:00.000Z,14.0
2018-04-17T03:27:00.000Z,14.0
2018-04-17T03:32:00.000Z,14.0
2018-04-17T03:37:00.000Z,14.0
2018-04-17T03:42:00.000Z,14.0
2018-04-17T03:47:00.000Z,14.0
2018-04-17T03:52:00.000Z,14.0
2018-04-17T03:57:00.000Z,14.0
2018-04-17T04:02:00.000Z,14.0
2018-04-17T04:07:00.000Z,13.9
2018-04-17T04:12:00.000Z,13.9
2018-04-17T04:17:00.000Z,13.9
2018-04-17T04:22:00.000Z,13.9
2018-04-17T04:27:00.000Z,13.9
2018-04-17T04:32:00.000Z,13.9
2018-04-17T04:37:00.000Z,13.9
2018-04-17T04:42:00.000Z,13.9
2018-04-17T04:47:00.000Z,13.8
2018-04-17T04:52:00.000Z,13.9
2018-04-17T04:57:00.000Z,13.9
2018-04-17T05:02:00.000Z,13.9
2018-04-17T05:07:00.000Z,13.9
2018-04-17T05:12:00.000Z,14.0
2018-04-17T05:17:00.000Z,14.0
2018-04-17T05:22:00.000Z,14.0
2018-04-17T05:27:00.000Z,14.0
2018-04-17T05:32:00.000Z,14.1
2018-04-17T05:37:00.000Z,14.2
2018-04-17T05:42:00.000Z,14.2
2018-04-17T05:48:00.000Z,14.3
2018-04-17T05:53:00.000Z,14.4
2018-04-17T05:58:00.000Z,14.4
2018-04-17T06:03:00.000Z,14.5
2018-04-17T06:08:00.000Z,14.5
2018-04-17T06:13:00.000Z,14.6
2018-04-17T06:18:00.000Z,14.8
2018-04-17T06:23:00.000Z,14.9
2018-04-17T06:28:00.000Z,15.0
2018-04-17T06:33:00.000Z,15.1
2018-04-17T06:38:00.000Z,15.2
2018-04-17T06:43:00.000Z,15.3
2018-04-17T06:48:00.000Z,15.4
2018-04-17T06:53:00.000Z,15.5
2018-04-17T06:58:00.000Z,15.6
2018-04-17T07:03:00.000Z,15.7
2018-04-17T07:08:00.000Z,15.7
2018-04-17T07:13:00.000Z,15.8
2018-04-17T07:18:00.000Z,16.0
2018-04-17T07:23:00.000Z,16.1
2018-04-17T07:28:00.000Z,16.3
2018-04-17T07:33:00.000Z,16.4
2018-04-17T07:38:00.000Z,16.5
2018-04-17T07:43:00.000Z,16.6
2018-04-17T07:48:00.000Z,16.8
2018-04-17T07:53:00.000Z,17.3
2018-04-17T07:58:00.000Z,17.6
2018-04-17T08:03:00.000Z,18.3
2018-04-17T08:08:00.000Z,18.8
2018-04-17T08:13:00.000Z,19.1
2018-04-17T08:18:00.000Z,18.9
2018-04-17T08:23:00.000Z,19.1
2018-04-17T08:28:00.000Z,19.8
2018-04-17T08:33:00.000Z,20.0
2018-04-17T08:38:00.000Z,20.3
2018-04-17T08:43:00.000Z,20.3
2018-04-17T08:48:00.000Z,19.9
2018-04-17T08:53:00.000Z,20.0
2018-04-17T08:58:00.000Z,20.4
2018-04-17T09:03:00.000Z,20.8
2018-04-17T09:08:00.000Z,21.0
2018-04-17T09:13:00.000Z,21.4
2018-04-17T09:18:00.000Z,21.5
2018-04-17T09:23:00.000Z,21.8
2018-04-17T09:28:00.000Z,22.3
2018-04-17T09:33:00.000Z,22.5
2018-04-17T09:38:00.000Z,22.4
2018-04-17T09:43:00.000Z,22.4
2018-04-17T09:48:00.000Z,22.5
2018-04-17T09:53:00.000Z,22.7
2018-04-17T09:58:00.000Z,22.6
2018-04-17T10:03:00.000Z,22.3
2018-04-17T10:08:00.000Z,22.3
2018-04-17T10:13:00.000Z,22.3
2018-04-17T10:18:00.000Z,22.4
2018-04-17T10:23:00.000Z,22.6
2018-04-17T10:28:00.000Z,22.7
2018-04-17T10:33:00.000Z,22.9
2018-04-17T10:38:00.000Z,22.8
2018-04-17T10:43:00.000Z,22.9
2018-04-17T10:48:00.000Z,22.7
2018-04-17T10:53:00.000Z,22.3
2018-04-17T10:58:00.000Z,22.8
2018-04-17T11:03:00.000Z,22.9
2018-04-17T11:08:00.000Z,23.0
2018-04-17T11:13:00.000Z,22.6
2018-04-17T11:18:00.000Z,22.7
2018-04-17T11:23:00.000Z,22.8
2018-04-17T11:28:00.000Z,22.4
2018-04-17T11:33:00.000Z,22.4
2018-04-17T11:38:00.000Z,22.5
2018-04-17T11:43:00.000Z,22.2
2018-04-17T11:49:00.000Z,22.1
2018-04-17T11:54:00.000Z,22.1
2018-04-17T11:59:00.000Z,22.3
2018-04-17T12:04:00.000Z,22.4
2018-04-17T12:09:00.000Z,22.3
2018-04-17T12:14:00.000Z,22.2
2018-04-17T12:19:00.000Z,22.0
2018-04-17T12:24:00.000Z,22.1
2018-04-17T12:29:00.000Z,22.4
2018-04-17T12:34:00.000Z,22.7
2018-04-17T12:39:00.000Z,22.8
2018-04-17T12:44:00.000Z,22.8
2018-04-17T12:49:00.000Z,23.1
2018-04-17T12:54:00.000Z,23.3
2018-04-17T12:59:00.000Z,23.5
2018-04-17T13:04:00.000Z,23.5
2018-04-17T13:09:00.000Z,23.4
2018-04-17T13:14:00.000Z,23.3
2018-04-17T13:19:00.000Z,22.8
2018-04-17T13:24:00.000Z,22.5
2018-04-17T13:29:00.000Z,22.4
2018-04-17T13:34:00.000Z,22.2
2018-04-17T13:39:00.000Z,22.7
2018-04-17T13:44:00.000Z,23.2
2018-04-17T13:49:00.000Z,23.6
2018-04-17T13:54:00.000Z,24.0
2018-04-17T13:59:00.000Z,23.9
2018-04-17T14:04:00.000Z,23.5
2018-04-17T14:09:00.000Z,23.1
2018-04-17T14:14:00.000Z,22.7
2018-04-17T14:19:00.000Z,22.5
2018-04-17T14:24:00.000Z,22.3
2018-04-17T14:29:00.000Z,22.0
2018-04-17T14:34:00.000Z,21.9
2018-04-17T14:39:00.000Z,21.7
2018-04-17T14:44:00.000Z,21.5
2018-04-17T14:49:00.000Z,21.3
2018-04-17T14:54:00.000Z,21.3
2018-04-17T14:59:00.000Z,21.2
2018-04-17T15:04:00.000Z,21.3
2018-04-17T15:09:00.000Z,21.5
2018-04-17T15:14:00.000Z,21.6
2018-04-17T15:19:00.000Z,21.6
2018-04-17T15:24:00.000Z,21.6
2018-04-17T15:29:00.000Z,21.6
2018-04-17T15:34:00.000Z,21.6
2018-04-17T15:39:00.000Z,21.5
2018-04-17T15:44:00.000Z,21.4
2018-04-17T15:49:00.000Z,21.3
2018-04-17T15:54:00.000Z,21.2
2018-04-17T15:59:00.000Z,21.1
2018-04-17T16:04:00.000Z,21.1
2018-04-17T16:09:00.000Z,21.0
2018-04-17T16:14:00.000Z,20.9
2018-04-17T16:19:00.000Z,20.7
2018-04-17T16:24:00.000Z,20.6
2018-04-17T16:29:00.000Z,20.5
2018-04-17T16:34:00.000Z,20.5
2018-04-17T16:39:00.000Z,20.5
2018-04-17T16:44:00.000Z,20.4
2018-04-17T16:49:00.000Z,20.4
2018-04-17T16:54:00.000Z,20.4
2018-04-17T16:59:00.000Z,20.3
2018-04-17T17:04:00.000Z,20.2
2018-04-17T17:09:00.000Z,20.2
2018-04-17T17:14:00.000Z,20.1
2018-04-17T17:19:00.000Z,20.0
2018-04-17T17:24:00.000Z,19.9
2018-04-17T17:29:00.000Z,19.7
2018-04-17T17:35:00.000Z,19.6
2018-04-17T17:40:00.000Z,19.5
2018-04-17T17:45:00.000Z,19.3
2018-04-17T17:50:00.000Z,19.2
2018-04-17T17:55:00.000Z,19.1
2018-04-17T18:00:00.000Z,19.0
2018-04-17T18:05:00.000Z,18.9
2018-04-17T18:10:00.000Z,18.8
2018-04-17T18:15:00.000Z,18.7
2018-04-17T18:20:00.000Z,18.7
2018-04-17T18:25:00.000Z,18.6
2018-04-17T18:30:00.000Z,18.5
2018-04-17T18:35:00.000Z,18.5
2018-04-17T18:40:00.000Z,18.4
2018-04-17T18:45:00.000Z,18.4
2018-04-17T18:50:00.000Z,18.3
2018-04-17T18:55:00.000Z,18.3
2018-04-17T19:00:00.000Z,18.3
2018-04-17T19:05:00.000Z,18.2
2018-04-17T19:10:00.000Z,18.2
2018-04-17T19:15:00.000Z,18.2
2018-04-17T19:20:00.000Z,18.1
2018-04-17T19:25:00.000Z,18.1
2018-04-17T19:30:00.000Z,18.0
2018-04-17T19:35:00.000Z,18.0
2018-04-17T19:40:00.000Z,17.9
2018-04-17T19:45:00.000Z,17.9
2018-04-17T19:50:00.000Z,17.8
2018-04-17T19:55:00.000Z,17.7
2018-04-17T20:00:00.000Z,17.7
2018-04-17T20:05:00.000Z,17.6
2018-04-17T20:10:00.000Z,17.6
2018-04-17T20:15:00.000Z,17.6
2018-04-17T20:20:00.000Z,17.5
2018-04-17T20:25:00.000Z,17.4
2018-04-17T20:30:00.000Z,17.4
2018-04-17T20:35:00.000Z,17.3
2018-04-17T20:40:00.000Z,17.2
2018-04-17T20:45:00.000Z,17.2
2018-04-17T20:50:00.000Z,17.1
2018-04-17T20:55:00.000Z,17.0
2018-04-17T21:00:00.000Z,16.9
2018-04-17T21:05:00.000Z,16.9
2018-04-17T21:10:00.000Z,16.8
2018-04-17T21:15:00.000Z,16.8
2018-04-17T21:20:00.000Z,16.7
2018-04-17T21:25:00.000Z,16.7
2018-04-17T21:30:00.000Z,16.6
2018-04-17T21:35:00.000Z,16.5
2018-04-17T21:40:00.000Z,16.5
2018-04-17T21:45:00.000Z,16.4
2018-04-17T21:50:00.000Z,16.3
2018-04-17T21:55:00.000Z,16.3
2018-04-17T22:00:00.000Z,16.3
2018-04-17T22:05:00.000Z,16.2
2018-04-17T22:10:00.000Z,16.1
2018-04-17T22:15:00.000Z,16.1
2018-04-17T22:20:00.000Z,16.0
2018-04-17T22:25:00.000Z,16.0
2018-04-17T22:30:00.000Z,15.9
2018-04-17T22:35:00.000Z,15.9
2018-04-17T22:40:00.000Z,15.8
2018-04-17T22:45:00.000Z,15.7
2018-04-17T22:50:00.000Z,15.7
2018-04-17T22:55:00.000Z,15.7
2018-04-17T23:00:00.000Z,15.6
2018-04-17T23:05:00.000Z,15.6
2018-04-17T23:10:00.000Z,15.6
2018-04-17T23:15:00.000Z,15.5
2018-04-17T23:20:00.000Z,15.5
2018-04-17T23:25:00.000Z,15.4
2018-04-17T23:30:00.000Z,15.2
2018-04-17T23:35:00.000Z,15.1
2018-04-17T23:40:00.000Z,15.0
2018-04-17T23:46:00.000Z,14.9
2018-04-17T23:51:00.000Z,14.8
2018-04-17T23:56:00.000Z,14.7
